sensor_id;sensor_type;location;lat;lon;timestamp;P1;durP1;ratioP1;P2;durP2;ratioP2
23236;SDS011;11787;52.018;8.570;2023-11-19T00:00:52;0.65;;;0.28;;
23236;SDS011;11787;52.018;8.570;2023-11-19T00:03:18;0.20;;;0.20;;
23236;SDS011;11787;52.018;8.570;2023-11-19T00:05:43;0.20;;;0.20;;
23236;SDS011;11787;52.018;8.570;2023-11-19T00:08:13;0.20;;;0.20;;
23236;SDS011;11787;52.018;8.570;2023-11-19T00:10:38;0.20;;;0.20;;
23236;SDS011;11787;52.018;8.570;2023-11-19T00:13:04;0.57;;;0.40;;
23236;SDS011;11787;52.018;8.570;2023-11-19T00:15:29;1.07;;;0.30;;
23236;SDS011;11787;52.018;8.570;2023-11-19T00:17:55;0.95;;;0.20;;
23236;SDS011;11787;52.018;8.570;2023-11-19T00:20:20;0.47;;;0.47;;
23236;SDS011;11787;52.018;8.570;2023-11-19T00:22:49;0.50;;;0.50;;
23236;SDS011;11787;52.018;8.570;2023-11-19T00:25:18;2.83;;;0.30;;
23236;SDS011;11787;52.018;8.570;2023-11-19T00:27:44;0.38;;;0.30;;
23236;SDS011;11787;52.018;8.570;2023-11-19T00:30:10;0.32;;;0.32;;
23236;SDS011;11787;52.018;8.570;2023-11-19T00:32:36;0.13;;;0.13;;
23236;SDS011;11787;52.018;8.570;2023-11-19T00:35:03;0.35;;;0.30;;
23236;SDS011;11787;52.018;8.570;2023-11-19T00:37:29;3.25;;;0.40;;
23236;SDS011;11787;52.018;8.570;2023-11-19T00:39:55;0.40;;;0.30;;
23236;SDS011;11787;52.018;8.570;2023-11-19T00:42:21;0.25;;;0.25;;
23236;SDS011;11787;52.018;8.570;2023-11-19T00:44:49;2.08;;;0.40;;
23236;SDS011;11787;52.018;8.570;2023-11-19T00:47:14;0.50;;;0.45;;
23236;SDS011;11787;52.018;8.570;2023-11-19T00:49:40;0.30;;;0.30;;
23236;SDS011;11787;52.018;8.570;2023-11-19T00:52:06;0.32;;;0.32;;
23236;SDS011;11787;52.018;8.570;2023-11-19T00:54:31;0.25;;;0.25;;
23236;SDS011;11787;52.018;8.570;2023-11-19T00:56:57;0.40;;;0.40;;
23236;SDS011;11787;52.018;8.570;2023-11-19T01:01:48;0.52;;;0.43;;
23236;SDS011;11787;52.018;8.570;2023-11-19T01:04:16;0.20;;;0.20;;
23236;SDS011;11787;52.018;8.570;2023-11-19T01:06:41;1.38;;;0.40;;
23236;SDS011;11787;52.018;8.570;2023-11-19T01:09:07;0.60;;;0.40;;
23236;SDS011;11787;52.018;8.570;2023-11-19T01:11:34;0.30;;;0.28;;
23236;SDS011;11787;52.018;8.570;2023-11-19T01:14:00;0.45;;;0.40;;
23236;SDS011;11787;52.018;8.570;2023-11-19T01:16:26;0.55;;;0.30;;
23236;SDS011;11787;52.018;8.570;2023-11-19T01:18:52;0.30;;;0.28;;
23236;SDS011;11787;52.018;8.570;2023-11-19T01:21:17;0.43;;;0.38;;
23236;SDS011;11787;52.018;8.570;2023-11-19T01:23:43;0.38;;;0.38;;
23236;SDS011;11787;52.018;8.570;2023-11-19T01:26:09;0.40;;;0.40;;
23236;SDS011;11787;52.018;8.570;2023-11-19T01:28:35;0.57;;;0.55;;
23236;SDS011;11787;52.018;8.570;2023-11-19T01:31:01;0.35;;;0.30;;
23236;SDS011;11787;52.018;8.570;2023-11-19T01:33:28;0.52;;;0.45;;
23236;SDS011;11787;52.018;8.570;2023-11-19T01:35:54;0.65;;;0.45;;
23236;SDS011;11787;52.018;8.570;2023-11-19T01:38:21;0.80;;;0.60;;
23236;SDS011;11787;52.018;8.570;2023-11-19T01:40:46;1.10;;;1.00;;
23236;SDS011;11787;52.018;8.570;2023-11-19T01:43:12;0.40;;;0.40;;
23236;SDS011;11787;52.018;8.570;2023-11-19T01:45:55;0.87;;;0.70;;
23236;SDS011;11787;52.018;8.570;2023-11-19T01:48:21;1.92;;;0.95;;
23236;SDS011;11787;52.018;8.570;2023-11-19T01:50:47;1.00;;;0.90;;
23236;SDS011;11787;52.018;8.570;2023-11-19T01:53:13;1.50;;;0.90;;
23236;SDS011;11787;52.018;8.570;2023-11-19T01:55:39;0.77;;;0.73;;
23236;SDS011;11787;52.018;8.570;2023-11-19T01:58:04;0.73;;;0.60;;
23236;SDS011;11787;52.018;8.570;2023-11-19T02:00:30;1.15;;;0.73;;
23236;SDS011;11787;52.018;8.570;2023-11-19T02:02:58;0.45;;;0.45;;
23236;SDS011;11787;52.018;8.570;2023-11-19T02:05:23;4.80;;;1.65;;
23236;SDS011;11787;52.018;8.570;2023-11-19T02:07:50;0.77;;;0.60;;
23236;SDS011;11787;52.018;8.570;2023-11-19T02:10:16;0.30;;;0.30;;
23236;SDS011;11787;52.018;8.570;2023-11-19T02:12:44;0.73;;;0.50;;
23236;SDS011;11787;52.018;8.570;2023-11-19T02:15:10;0.65;;;0.43;;
23236;SDS011;11787;52.018;8.570;2023-11-19T02:17:37;0.38;;;0.38;;
23236;SDS011;11787;52.018;8.570;2023-11-19T02:20:03;1.67;;;0.40;;
23236;SDS011;11787;52.018;8.570;2023-11-19T02:22:40;0.40;;;0.40;;
23236;SDS011;11787;52.018;8.570;2023-11-19T02:43:40;1.42;;;1.33;;
23236;SDS011;11787;52.018;8.570;2023-11-19T02:46:05;0.98;;;0.85;;
23236;SDS011;11787;52.018;8.570;2023-11-19T02:48:32;2.28;;;1.67;;
23236;SDS011;11787;52.018;8.570;2023-11-19T02:50:58;1.90;;;1.45;;
23236;SDS011;11787;52.018;8.570;2023-11-19T02:53:24;1.75;;;1.50;;
23236;SDS011;11787;52.018;8.570;2023-11-19T02:55:52;2.67;;;1.95;;
23236;SDS011;11787;52.018;8.570;2023-11-19T02:58:18;3.03;;;1.60;;
23236;SDS011;11787;52.018;8.570;2023-11-19T03:00:48;3.00;;;2.17;;
23236;SDS011;11787;52.018;8.570;2023-11-19T03:03:22;3.22;;;2.17;;
23236;SDS011;11787;52.018;8.570;2023-11-19T03:05:56;3.30;;;2.38;;
23236;SDS011;11787;52.018;8.570;2023-11-19T14:46:56;10.15;;;2.30;;
23236;SDS011;11787;52.018;8.570;2023-11-19T14:49:22;13.98;;;1.48;;
23236;SDS011;11787;52.018;8.570;2023-11-19T14:51:48;5.88;;;1.42;;
23236;SDS011;11787;52.018;8.570;2023-11-19T14:54:14;6.60;;;2.17;;
23236;SDS011;11787;52.018;8.570;2023-11-19T14:56:41;3.50;;;1.20;;
23236;SDS011;11787;52.018;8.570;2023-11-19T15:59:57;8.80;;;1.60;;
23236;SDS011;11787;52.018;8.570;2023-11-19T16:02:22;7.97;;;1.45;;
23236;SDS011;11787;52.018;8.570;2023-11-19T16:04:48;5.22;;;1.05;;
23236;SDS011;11787;52.018;8.570;2023-11-19T16:07:15;5.50;;;1.25;;
23236;SDS011;11787;52.018;8.570;2023-11-19T16:09:40;3.97;;;1.20;;
23236;SDS011;11787;52.018;8.570;2023-11-19T16:12:07;4.18;;;1.30;;
23236;SDS011;11787;52.018;8.570;2023-11-19T16:14:35;9.27;;;1.48;;
23236;SDS011;11787;52.018;8.570;2023-11-19T16:17:01;5.63;;;1.40;;
23236;SDS011;11787;52.018;8.570;2023-11-19T16:19:26;3.38;;;1.40;;
23236;SDS011;11787;52.018;8.570;2023-11-19T16:21:52;5.63;;;1.65;;
23236;SDS011;11787;52.018;8.570;2023-11-19T16:24:18;4.13;;;1.02;;
23236;SDS011;11787;52.018;8.570;2023-11-19T16:26:44;4.78;;;1.55;;
23236;SDS011;11787;52.018;8.570;2023-11-19T16:29:10;7.00;;;1.42;;
23236;SDS011;11787;52.018;8.570;2023-11-19T16:31:35;9.38;;;1.85;;
23236;SDS011;11787;52.018;8.570;2023-11-19T16:34:01;5.65;;;1.60;;
23236;SDS011;11787;52.018;8.570;2023-11-19T16:36:27;4.80;;;1.33;;
23236;SDS011;11787;52.018;8.570;2023-11-19T16:38:52;10.68;;;1.70;;
23236;SDS011;11787;52.018;8.570;2023-11-19T16:41:18;7.18;;;2.03;;
23236;SDS011;11787;52.018;8.570;2023-11-19T16:43:46;6.82;;;1.63;;
23236;SDS011;11787;52.018;8.570;2023-11-19T16:46:13;6.63;;;2.22;;
23236;SDS011;11787;52.018;8.570;2023-11-19T16:48:39;5.30;;;1.80;;
23236;SDS011;11787;52.018;8.570;2023-11-19T16:51:11;5.05;;;1.88;;
23236;SDS011;11787;52.018;8.570;2023-11-19T16:53:43;5.75;;;1.60;;
23236;SDS011;11787;52.018;8.570;2023-11-19T16:56:16;5.00;;;2.03;;
23236;SDS011;11787;52.018;8.570;2023-11-19T16:58:44;5.10;;;1.63;;
23236;SDS011;11787;52.018;8.570;2023-11-19T17:01:10;8.23;;;2.45;;
23236;SDS011;11787;52.018;8.570;2023-11-19T17:03:41;6.68;;;1.40;;
23236;SDS011;11787;52.018;8.570;2023-11-19T17:06:07;5.72;;;2.33;;
23236;SDS011;11787;52.018;8.570;2023-11-19T17:08:33;6.60;;;2.00;;
23236;SDS011;11787;52.018;8.570;2023-11-19T17:11:00;5.93;;;1.30;;
23236;SDS011;11787;52.018;8.570;2023-11-19T17:13:26;9.77;;;2.45;;
23236;SDS011;11787;52.018;8.570;2023-11-19T17:15:52;6.90;;;1.48;;
23236;SDS011;11787;52.018;8.570;2023-11-19T17:18:18;5.53;;;1.33;;
23236;SDS011;11787;52.018;8.570;2023-11-19T17:20:43;8.40;;;1.70;;
23236;SDS011;11787;52.018;8.570;2023-11-19T17:23:09;6.60;;;1.58;;
23236;SDS011;11787;52.018;8.570;2023-11-19T17:25:36;7.82;;;1.92;;
23236;SDS011;11787;52.018;8.570;2023-11-19T17:28:03;6.20;;;1.20;;
23236;SDS011;11787;52.018;8.570;2023-11-19T17:30:32;6.45;;;1.40;;
23236;SDS011;11787;52.018;8.570;2023-11-19T17:32:58;3.75;;;1.17;;
23236;SDS011;11787;52.018;8.570;2023-11-19T17:35:24;7.05;;;1.38;;
23236;SDS011;11787;52.018;8.570;2023-11-19T17:37:50;5.22;;;1.65;;
23236;SDS011;11787;52.018;8.570;2023-11-19T17:40:16;5.88;;;1.83;;
23236;SDS011;11787;52.018;8.570;2023-11-19T17:42:41;6.53;;;1.92;;
23236;SDS011;11787;52.018;8.570;2023-11-19T17:45:08;15.48;;;1.73;;
23236;SDS011;11787;52.018;8.570;2023-11-19T17:47:34;4.55;;;1.55;;
23236;SDS011;11787;52.018;8.570;2023-11-19T17:49:59;9.27;;;1.55;;
23236;SDS011;11787;52.018;8.570;2023-11-19T17:52:27;9.45;;;1.83;;
23236;SDS011;11787;52.018;8.570;2023-11-19T17:54:53;9.63;;;2.05;;
23236;SDS011;11787;52.018;8.570;2023-11-19T17:57:19;5.95;;;2.00;;
23236;SDS011;11787;52.018;8.570;2023-11-19T17:59:44;5.53;;;1.13;;
23236;SDS011;11787;52.018;8.570;2023-11-19T18:02:12;8.35;;;1.48;;
23236;SDS011;11787;52.018;8.570;2023-11-19T18:04:38;5.97;;;1.73;;
23236;SDS011;11787;52.018;8.570;2023-11-19T18:07:04;8.30;;;2.13;;
23236;SDS011;11787;52.018;8.570;2023-11-19T18:09:29;9.88;;;2.58;;
23236;SDS011;11787;52.018;8.570;2023-11-19T18:11:55;5.68;;;1.42;;
23236;SDS011;11787;52.018;8.570;2023-11-19T18:14:21;8.68;;;2.10;;
23236;SDS011;11787;52.018;8.570;2023-11-19T18:16:48;4.10;;;1.80;;
23236;SDS011;11787;52.018;8.570;2023-11-19T18:19:15;4.88;;;1.67;;
23236;SDS011;11787;52.018;8.570;2023-11-19T18:21:43;6.00;;;1.48;;
23236;SDS011;11787;52.018;8.570;2023-11-19T18:24:09;5.72;;;1.85;;
23236;SDS011;11787;52.018;8.570;2023-11-19T18:26:34;5.75;;;2.08;;
23236;SDS011;11787;52.018;8.570;2023-11-19T18:29:00;9.25;;;2.40;;
23236;SDS011;11787;52.018;8.570;2023-11-19T18:31:26;10.18;;;1.92;;
23236;SDS011;11787;52.018;8.570;2023-11-19T18:33:51;2.60;;;1.23;;
23236;SDS011;11787;52.018;8.570;2023-11-19T18:36:17;10.70;;;2.13;;
23236;SDS011;11787;52.018;8.570;2023-11-19T18:38:42;5.18;;;1.70;;
23236;SDS011;11787;52.018;8.570;2023-11-19T18:41:08;7.05;;;2.17;;
23236;SDS011;11787;52.018;8.570;2023-11-19T18:43:33;4.18;;;1.58;;
23236;SDS011;11787;52.018;8.570;2023-11-19T18:45:59;7.55;;;2.05;;
23236;SDS011;11787;52.018;8.570;2023-11-19T18:48:24;3.42;;;1.40;;
23236;SDS011;11787;52.018;8.570;2023-11-19T18:50:50;5.75;;;1.88;;
23236;SDS011;11787;52.018;8.570;2023-11-19T18:53:17;8.70;;;2.47;;
23236;SDS011;11787;52.018;8.570;2023-11-19T18:55:43;4.00;;;1.25;;
23236;SDS011;11787;52.018;8.570;2023-11-19T18:58:08;4.38;;;1.42;;
23236;SDS011;11787;52.018;8.570;2023-11-19T19:00:34;6.22;;;1.92;;
23236;SDS011;11787;52.018;8.570;2023-11-19T19:02:59;6.30;;;1.75;;
23236;SDS011;11787;52.018;8.570;2023-11-19T19:05:25;9.73;;;1.27;;
23236;SDS011;11787;52.018;8.570;2023-11-19T19:07:52;3.58;;;1.42;;
23236;SDS011;11787;52.018;8.570;2023-11-19T19:10:21;5.50;;;1.80;;
23236;SDS011;11787;52.018;8.570;2023-11-19T19:12:47;7.93;;;2.35;;
23236;SDS011;11787;52.018;8.570;2023-11-19T19:15:12;6.05;;;1.50;;
23236;SDS011;11787;52.018;8.570;2023-11-19T19:17:38;4.65;;;2.78;;
23236;SDS011;11787;52.018;8.570;2023-11-19T19:20:05;7.90;;;2.08;;
23236;SDS011;11787;52.018;8.570;2023-11-19T19:22:32;5.13;;;1.92;;
23236;SDS011;11787;52.018;8.570;2023-11-19T19:24:59;8.80;;;3.53;;
23236;SDS011;11787;52.018;8.570;2023-11-19T19:27:25;2.47;;;1.55;;
23236;SDS011;11787;52.018;8.570;2023-11-19T19:29:51;6.13;;;1.95;;
23236;SDS011;11787;52.018;8.570;2023-11-19T19:32:16;6.03;;;1.75;;
23236;SDS011;11787;52.018;8.570;2023-11-19T19:34:42;4.32;;;1.70;;
23236;SDS011;11787;52.018;8.570;2023-11-19T19:37:08;2.53;;;1.30;;
23236;SDS011;11787;52.018;8.570;2023-11-19T19:39:35;3.67;;;1.95;;
23236;SDS011;11787;52.018;8.570;2023-11-19T19:42:00;7.90;;;1.60;;
23236;SDS011;11787;52.018;8.570;2023-11-19T19:44:28;4.72;;;1.15;;
23236;SDS011;11787;52.018;8.570;2023-11-19T19:46:54;4.43;;;1.60;;
23236;SDS011;11787;52.018;8.570;2023-11-19T19:49:20;6.25;;;1.25;;
23236;SDS011;11787;52.018;8.570;2023-11-19T19:51:46;2.80;;;1.25;;
23236;SDS011;11787;52.018;8.570;2023-11-19T19:54:11;2.85;;;1.40;;
23236;SDS011;11787;52.018;8.570;2023-11-19T19:56:37;3.65;;;1.35;;
23236;SDS011;11787;52.018;8.570;2023-11-19T19:59:04;4.45;;;1.55;;
23236;SDS011;11787;52.018;8.570;2023-11-19T20:01:29;5.22;;;1.50;;
23236;SDS011;11787;52.018;8.570;2023-11-19T20:03:55;5.35;;;2.35;;
23236;SDS011;11787;52.018;8.570;2023-11-19T20:06:21;2.28;;;1.23;;
23236;SDS011;11787;52.018;8.570;2023-11-19T20:08:49;3.85;;;1.40;;
23236;SDS011;11787;52.018;8.570;2023-11-19T20:11:15;4.82;;;1.48;;
23236;SDS011;11787;52.018;8.570;2023-11-19T20:13:41;4.18;;;0.95;;
23236;SDS011;11787;52.018;8.570;2023-11-19T20:16:06;1.73;;;1.00;;
23236;SDS011;11787;52.018;8.570;2023-11-19T20:18:34;3.22;;;1.10;;
23236;SDS011;11787;52.018;8.570;2023-11-19T20:21:00;2.58;;;1.10;;
23236;SDS011;11787;52.018;8.570;2023-11-19T20:23:31;3.42;;;1.20;;
23236;SDS011;11787;52.018;8.570;2023-11-19T20:25:57;2.03;;;0.90;;
23236;SDS011;11787;52.018;8.570;2023-11-19T20:28:22;3.85;;;1.42;;
23236;SDS011;11787;52.018;8.570;2023-11-19T20:30:48;1.85;;;0.73;;
23236;SDS011;11787;52.018;8.570;2023-11-19T20:33:14;1.88;;;1.10;;
23236;SDS011;11787;52.018;8.570;2023-11-19T20:35:40;3.80;;;0.82;;
23236;SDS011;11787;52.018;8.570;2023-11-19T20:38:06;6.05;;;2.53;;
23236;SDS011;11787;52.018;8.570;2023-11-19T20:40:31;2.53;;;0.93;;
23236;SDS011;11787;52.018;8.570;2023-11-19T20:42:57;4.13;;;1.30;;
23236;SDS011;11787;52.018;8.570;2023-11-19T20:45:23;2.78;;;1.17;;
23236;SDS011;11787;52.018;8.570;2023-11-19T20:47:52;5.03;;;1.42;;
23236;SDS011;11787;52.018;8.570;2023-11-19T20:50:18;8.02;;;1.40;;
23236;SDS011;11787;52.018;8.570;2023-11-19T20:52:47;4.47;;;1.05;;
23236;SDS011;11787;52.018;8.570;2023-11-19T20:55:13;2.17;;;1.00;;
23236;SDS011;11787;52.018;8.570;2023-11-19T20:57:39;3.78;;;0.90;;
23236;SDS011;11787;52.018;8.570;2023-11-19T21:00:05;3.97;;;1.25;;
23236;SDS011;11787;52.018;8.570;2023-11-19T21:02:32;2.30;;;1.02;;
23236;SDS011;11787;52.018;8.570;2023-11-19T21:04:57;1.25;;;0.68;;
23236;SDS011;11787;52.018;8.570;2023-11-19T21:07:23;3.22;;;1.00;;
23236;SDS011;11787;52.018;8.570;2023-11-19T21:09:50;1.48;;;1.05;;
23236;SDS011;11787;52.018;8.570;2023-11-19T21:12:16;0.77;;;0.52;;
23236;SDS011;11787;52.018;8.570;2023-11-19T21:14:41;2.97;;;0.65;;
23236;SDS011;11787;52.018;8.570;2023-11-19T21:17:07;1.30;;;0.80;;
23236;SDS011;11787;52.018;8.570;2023-11-19T21:19:33;1.13;;;0.95;;
23236;SDS011;11787;52.018;8.570;2023-11-19T21:21:58;1.95;;;0.98;;
23236;SDS011;11787;52.018;8.570;2023-11-19T21:24:24;2.10;;;0.65;;
23236;SDS011;11787;52.018;8.570;2023-11-19T21:26:50;2.70;;;0.95;;
23236;SDS011;11787;52.018;8.570;2023-11-19T21:29:15;3.08;;;0.73;;
23236;SDS011;11787;52.018;8.570;2023-11-19T21:31:41;4.50;;;1.08;;
23236;SDS011;11787;52.018;8.570;2023-11-19T21:34:06;2.58;;;1.10;;
23236;SDS011;11787;52.018;8.570;2023-11-19T21:36:32;2.15;;;1.02;;
23236;SDS011;11787;52.018;8.570;2023-11-19T21:38:58;0.73;;;0.60;;
23236;SDS011;11787;52.018;8.570;2023-11-19T21:41:24;0.77;;;0.60;;
23236;SDS011;11787;52.018;8.570;2023-11-19T21:43:49;1.33;;;0.75;;
23236;SDS011;11787;52.018;8.570;2023-11-19T21:46:15;1.30;;;0.80;;
23236;SDS011;11787;52.018;8.570;2023-11-19T21:48:41;1.75;;;0.57;;
23236;SDS011;11787;52.018;8.570;2023-11-19T21:51:06;2.67;;;0.50;;
23236;SDS011;11787;52.018;8.570;2023-11-19T21:53:33;1.15;;;0.95;;
23236;SDS011;11787;52.018;8.570;2023-11-19T21:55:58;4.72;;;1.02;;
23236;SDS011;11787;52.018;8.570;2023-11-19T21:58:24;1.33;;;0.80;;
23236;SDS011;11787;52.018;8.570;2023-11-19T22:00:56;0.75;;;0.70;;
23236;SDS011;11787;52.018;8.570;2023-11-19T22:03:21;0.65;;;0.52;;
23236;SDS011;11787;52.018;8.570;2023-11-19T22:05:47;1.40;;;0.55;;
23236;SDS011;11787;52.018;8.570;2023-11-19T22:08:14;1.17;;;0.60;;
23236;SDS011;11787;52.018;8.570;2023-11-19T22:10:40;0.32;;;0.30;;
23236;SDS011;11787;52.018;8.570;2023-11-19T22:13:06;0.90;;;0.47;;
23236;SDS011;11787;52.018;8.570;2023-11-19T22:15:31;0.95;;;0.45;;
23236;SDS011;11787;52.018;8.570;2023-11-19T22:17:57;0.43;;;0.30;;
23236;SDS011;11787;52.018;8.570;2023-11-19T22:20:23;0.50;;;0.50;;
23236;SDS011;11787;52.018;8.570;2023-11-19T22:22:48;0.93;;;0.47;;
23236;SDS011;11787;52.018;8.570;2023-11-19T22:25:16;0.20;;;0.20;;
23236;SDS011;11787;52.018;8.570;2023-11-19T22:27:41;0.82;;;0.63;;
23236;SDS011;11787;52.018;8.570;2023-11-19T22:30:07;0.82;;;0.40;;
23236;SDS011;11787;52.018;8.570;2023-11-19T22:32:36;0.40;;;0.40;;
23236;SDS011;11787;52.018;8.570;2023-11-19T22:35:03;3.55;;;0.55;;
23236;SDS011;11787;52.018;8.570;2023-11-19T22:37:29;0.85;;;0.65;;
23236;SDS011;11787;52.018;8.570;2023-11-19T22:39:54;0.63;;;0.63;;
23236;SDS011;11787;52.018;8.570;2023-11-19T22:42:21;1.02;;;0.40;;
23236;SDS011;11787;52.018;8.570;2023-11-19T22:44:46;2.72;;;0.68;;
23236;SDS011;11787;52.018;8.570;2023-11-19T22:47:12;1.17;;;0.90;;
23236;SDS011;11787;52.018;8.570;2023-11-19T22:49:38;1.27;;;0.60;;
23236;SDS011;11787;52.018;8.570;2023-11-19T22:52:04;0.95;;;0.55;;
23236;SDS011;11787;52.018;8.570;2023-11-19T22:54:30;0.60;;;0.57;;
23236;SDS011;11787;52.018;8.570;2023-11-19T22:56:56;0.40;;;0.30;;
23236;SDS011;11787;52.018;8.570;2023-11-19T22:59:22;1.98;;;0.55;;
23236;SDS011;11787;52.018;8.570;2023-11-19T23:04:45;0.28;;;0.28;;
23236;SDS011;11787;52.018;8.570;2023-11-19T23:07:11;0.52;;;0.43;;
23236;SDS011;11787;52.018;8.570;2023-11-19T23:09:36;0.80;;;0.80;;
23236;SDS011;11787;52.018;8.570;2023-11-19T23:12:04;2.60;;;1.00;;
23236;SDS011;11787;52.018;8.570;2023-11-19T23:14:30;5.32;;;0.50;;
23236;SDS011;11787;52.018;8.570;2023-11-19T23:16:55;2.28;;;0.90;;
23236;SDS011;11787;52.018;8.570;2023-11-19T23:19:21;1.00;;;0.70;;
23236;SDS011;11787;52.018;8.570;2023-11-19T23:21:47;2.08;;;0.90;;
23236;SDS011;11787;52.018;8.570;2023-11-19T23:24:13;1.50;;;0.82;;
23236;SDS011;11787;52.018;8.570;2023-11-19T23:26:38;2.55;;;1.20;;
23236;SDS011;11787;52.018;8.570;2023-11-19T23:29:06;2.08;;;1.10;;
23236;SDS011;11787;52.018;8.570;2023-11-19T23:31:33;2.47;;;1.15;;
23236;SDS011;11787;52.018;8.570;2023-11-19T23:33:59;1.77;;;1.10;;
23236;SDS011;11787;52.018;8.570;2023-11-19T23:36:26;2.08;;;1.13;;
23236;SDS011;11787;52.018;8.570;2023-11-19T23:38:52;3.90;;;1.60;;
23236;SDS011;11787;52.018;8.570;2023-11-19T23:41:18;2.30;;;1.33;;
23236;SDS011;11787;52.018;8.570;2023-11-19T23:43:44;3.28;;;1.38;;
23236;SDS011;11787;52.018;8.570;2023-11-19T23:46:11;1.70;;;1.10;;
23236;SDS011;11787;52.018;8.570;2023-11-19T23:48:37;1.77;;;1.25;;
23236;SDS011;11787;52.018;8.570;2023-11-19T23:51:03;1.95;;;1.08;;
23236;SDS011;11787;52.018;8.570;2023-11-19T23:53:29;0.82;;;0.77;;
23236;SDS011;11787;52.018;8.570;2023-11-19T23:55:55;1.45;;;0.85;;
23236;SDS011;11787;52.018;8.570;2023-11-19T23:58:21;0.93;;;0.73;;
